createdAt,value
2022-08-22T00:00:17.053Z,1003.43
2022-08-22T00:01:17.024Z,1003.45
2022-08-22T00:02:17.047Z,1003.43
2022-08-22T00:02:44.828Z,1002.94
2022-08-22T00:02:48.855Z,1003.39
2022-08-22T00:02:59.810Z,1003.24
2022-08-22T00:03:07.844Z,1003.46
2022-08-22T00:03:19.046Z,1003.40
2022-08-22T00:04:17.001Z,1003.39
2022-08-22T00:05:16.974Z,1003.42
2022-08-22T00:06:16.981Z,1003.39
2022-08-22T00:07:16.934Z,1003.35
2022-08-22T00:08:16.944Z,1003.36
2022-08-22T00:09:16.959Z,1003.37
2022-08-22T00:10:23.576Z,1003.26
2022-08-22T00:11:17.902Z,1003.28
2022-08-22T00:12:16.871Z,1003.28
2022-08-22T00:13:16.854Z,1003.28
2022-08-22T00:14:16.879Z,1003.30
2022-08-22T00:15:42.181Z,1003.30
2022-08-22T00:16:17.821Z,1003.32
2022-08-22T00:17:16.801Z,1003.36
2022-08-22T00:18:16.793Z,1003.37
2022-08-22T00:19:16.784Z,1003.37
2022-08-22T00:20:16.760Z,1003.35
2022-08-22T00:21:16.741Z,1003.37
2022-08-22T00:22:16.731Z,1003.38
2022-08-22T00:23:16.712Z,1003.40
2022-08-22T00:24:16.720Z,1003.39
2022-08-22T00:25:25.998Z,1003.38
2022-08-22T00:26:17.679Z,1003.46
2022-08-22T00:27:16.671Z,1003.38
2022-08-22T00:28:16.648Z,1003.41
2022-08-22T00:29:16.640Z,1003.36
2022-08-22T00:30:16.625Z,1003.43
2022-08-22T00:31:16.623Z,1003.43
2022-08-22T00:32:16.593Z,1003.37
2022-08-22T00:33:16.583Z,1003.35
2022-08-22T00:34:16.582Z,1003.32
2022-08-22T00:35:16.552Z,1003.37
2022-08-22T00:36:16.548Z,1003.37
2022-08-22T00:37:16.530Z,1003.44
2022-08-22T00:38:16.510Z,1003.32
2022-08-22T00:39:16.510Z,1003.38
2022-08-22T00:40:16.500Z,1003.37
2022-08-22T00:41:16.469Z,1003.39
2022-08-22T00:42:31.232Z,1003.38
2022-08-22T00:43:17.447Z,1003.39
2022-08-22T00:44:16.439Z,1003.42
2022-08-22T00:45:16.410Z,1003.35
2022-08-22T00:46:16.409Z,1003.47
2022-08-22T00:47:16.390Z,1003.45
2022-08-22T00:48:16.380Z,1003.43
2022-08-22T00:49:16.370Z,1003.36
2022-08-22T00:50:16.362Z,1003.42
2022-08-22T00:51:16.328Z,1003.41
2022-08-22T00:52:16.325Z,1003.38
2022-08-22T00:53:16.308Z,1003.35
2022-08-22T00:54:18.032Z,1003.42
2022-08-22T00:55:16.288Z,1003.30
2022-08-22T00:56:16.268Z,1003.34
2022-08-22T00:57:16.258Z,1003.35
2022-08-22T00:58:16.238Z,1003.34
2022-08-22T00:59:23.210Z,1003.39
2022-08-22T01:00:17.209Z,1003.39
2022-08-22T01:01:16.258Z,1003.35
2022-08-22T01:02:16.177Z,1003.36
2022-08-22T01:03:16.169Z,1003.38
2022-08-22T01:04:16.167Z,1003.39
2022-08-22T01:05:16.137Z,1003.37
2022-08-22T01:06:16.127Z,1003.35
2022-08-22T01:07:16.125Z,1003.35
2022-08-22T01:08:16.097Z,1003.37
2022-08-22T01:09:16.106Z,1003.43
2022-08-22T01:10:16.067Z,1003.40
2022-08-22T01:11:16.057Z,1003.34
2022-08-22T01:12:16.045Z,1003.40
2022-08-22T01:13:16.036Z,1003.37
2022-08-22T01:14:16.038Z,1003.31
2022-08-22T01:15:16.006Z,1003.28
2022-08-22T01:16:15.985Z,1003.31
2022-08-22T01:17:15.987Z,1003.28
2022-08-22T01:18:15.969Z,1003.33
2022-08-22T01:19:15.967Z,1003.28
2022-08-22T01:20:15.936Z,1003.26
2022-08-22T01:21:15.943Z,1003.27
2022-08-22T01:22:16.914Z,1003.27
2022-08-22T01:23:15.895Z,1003.28
2022-08-22T01:24:15.885Z,1003.25
2022-08-22T01:25:15.883Z,1003.29
2022-08-22T01:26:15.854Z,1003.26
2022-08-22T01:27:15.848Z,1003.27
2022-08-22T01:28:15.825Z,1003.25
2022-08-22T01:29:15.825Z,1003.28
2022-08-22T01:30:15.803Z,1003.26
2022-08-22T01:31:15.794Z,1003.25
2022-08-22T01:32:15.773Z,1003.31
2022-08-22T01:33:15.764Z,1003.25
2022-08-22T01:34:15.755Z,1003.28
2022-08-22T01:35:15.734Z,1003.29
2022-08-22T01:36:15.725Z,1003.28
2022-08-22T01:37:15.705Z,1003.26
2022-08-22T01:38:15.695Z,1003.28
2022-08-22T01:39:15.702Z,1003.19
2022-08-22T01:40:15.719Z,1003.22
2022-08-22T01:41:15.662Z,1003.22
2022-08-22T01:42:15.634Z,1003.21
2022-08-22T01:43:15.623Z,1003.21
2022-08-22T01:44:15.616Z,1003.14
2022-08-22T01:45:15.603Z,1003.24
2022-08-22T01:46:20.615Z,1003.22
2022-08-22T01:47:16.574Z,1003.25
2022-08-22T01:48:15.562Z,1003.26
2022-08-22T01:49:15.563Z,1003.19
2022-08-22T01:50:15.530Z,1003.23
2022-08-22T01:51:15.521Z,1003.18
2022-08-22T01:52:15.501Z,1003.21
2022-08-22T01:53:15.493Z,1003.18
2022-08-22T01:54:15.484Z,1003.23
2022-08-22T01:55:15.461Z,1003.19
2022-08-22T01:56:15.441Z,1003.15
2022-08-22T01:57:15.440Z,1003.16
2022-08-22T01:58:15.414Z,1003.27
2022-08-22T01:59:15.881Z,1003.23
2022-08-22T02:00:15.392Z,1003.29
2022-08-22T02:01:15.407Z,1003.27
2022-08-22T02:02:15.370Z,1003.27
2022-08-22T02:03:15.355Z,1003.25
2022-08-22T02:04:15.350Z,1003.27
2022-08-22T02:05:15.330Z,1003.34
2022-08-22T02:06:15.311Z,1003.29
2022-08-22T02:07:15.300Z,1003.35
2022-08-22T02:08:15.282Z,1003.32
2022-08-22T02:09:15.290Z,1003.29
2022-08-22T02:10:15.271Z,1003.32
2022-08-22T02:11:15.262Z,1003.34
2022-08-22T02:12:21.961Z,1003.28
2022-08-22T02:13:16.230Z,1003.34
2022-08-22T02:14:15.219Z,1003.30
2022-08-22T02:15:15.202Z,1003.33
2022-08-22T02:16:15.180Z,1003.30
2022-08-22T02:17:15.170Z,1003.33
2022-08-22T02:18:15.161Z,1003.29
2022-08-22T02:19:15.163Z,1003.30
2022-08-22T02:20:15.132Z,1003.31
2022-08-22T02:21:16.129Z,1003.28
2022-08-22T02:22:15.109Z,1003.28
2022-08-22T02:23:15.099Z,1003.23
2022-08-22T02:24:15.092Z,1003.28
2022-08-22T02:25:15.079Z,1003.25
2022-08-22T02:26:15.058Z,1003.28
2022-08-22T02:27:15.048Z,1003.26
2022-08-22T02:28:15.027Z,1003.20
2022-08-22T02:29:15.027Z,1003.24
2022-08-22T02:30:15.018Z,1003.24
2022-08-22T02:31:16.758Z,1003.24
2022-08-22T02:32:14.968Z,1003.17
2022-08-22T02:33:14.958Z,1003.27
2022-08-22T02:34:14.979Z,1003.23
2022-08-22T02:35:14.928Z,1003.20
2022-08-22T02:36:14.920Z,1003.21
2022-08-22T02:37:14.897Z,1003.16
2022-08-22T02:38:14.888Z,1003.14
2022-08-22T02:39:14.889Z,1003.16
2022-08-22T02:40:15.007Z,1003.20
2022-08-22T02:41:14.848Z,1003.15
2022-08-22T02:42:14.847Z,1003.13
2022-08-22T02:43:14.827Z,1003.11
2022-08-22T02:44:14.814Z,1003.09
2022-08-22T02:45:14.811Z,1003.13
2022-08-22T02:46:14.786Z,1003.08
2022-08-22T02:47:14.777Z,1003.09
2022-08-22T02:48:14.755Z,1003.08
2022-08-22T02:49:14.745Z,1003.11
2022-08-22T02:50:14.756Z,1003.10
2022-08-22T02:51:14.718Z,1003.10
2022-08-22T02:52:14.706Z,1003.04
2022-08-22T02:53:14.697Z,1003.10
2022-08-22T02:54:14.688Z,1003.10
2022-08-22T02:55:14.679Z,1003.02
2022-08-22T02:56:14.658Z,1003.08
2022-08-22T02:57:14.813Z,1003.07
2022-08-22T02:58:14.636Z,1003.04
2022-08-22T02:59:14.616Z,1003.13
2022-08-22T03:00:32.828Z,1003.04
2022-08-22T03:01:15.622Z,1003.04
2022-08-22T03:02:14.587Z,1003.00
2022-08-22T03:03:14.571Z,1003.08
2022-08-22T03:04:14.553Z,1002.99
2022-08-22T03:05:14.533Z,1003.04
2022-08-22T03:06:14.533Z,1003.03
2022-08-22T03:07:14.506Z,1003.04
2022-08-22T03:08:14.509Z,1003.08
2022-08-22T03:09:14.483Z,1003.02
2022-08-22T03:10:14.474Z,1003.06
2022-08-22T03:11:14.464Z,1003.07
2022-08-22T03:12:14.453Z,1003.04
2022-08-22T03:13:14.425Z,1002.97
2022-08-22T03:14:14.431Z,1003.02
2022-08-22T03:15:14.402Z,1002.94
2022-08-22T03:16:14.402Z,1002.95
2022-08-22T03:17:14.383Z,1002.98
2022-08-22T03:18:14.385Z,1003.00
2022-08-22T03:19:18.887Z,1002.92
2022-08-22T03:20:14.360Z,1002.95
2022-08-22T03:21:14.353Z,1002.92
2022-08-22T03:22:14.324Z,1002.91
2022-08-22T03:23:14.314Z,1002.92
2022-08-22T03:24:14.293Z,1002.82
2022-08-22T03:25:14.281Z,1002.92
2022-08-22T03:26:14.271Z,1002.88
2022-08-22T03:27:14.262Z,1002.91
2022-08-22T03:28:15.253Z,1002.95
2022-08-22T03:29:14.221Z,1002.90
2022-08-22T03:30:14.230Z,1002.83
2022-08-22T03:31:14.202Z,1002.90
2022-08-22T03:32:14.203Z,1002.93
2022-08-22T03:33:14.172Z,1002.87
2022-08-22T03:34:14.171Z,1002.89
2022-08-22T03:35:14.150Z,1002.91
2022-08-22T03:36:14.140Z,1002.91
2022-08-22T03:37:14.139Z,1002.89
2022-08-22T03:38:14.119Z,1002.84
2022-08-22T03:39:17.443Z,1002.88
2022-08-22T03:40:14.119Z,1002.85
2022-08-22T03:41:14.069Z,1002.84
2022-08-22T03:42:14.069Z,1002.81
2022-08-22T03:43:14.040Z,1002.78
2022-08-22T03:44:14.041Z,1002.78
2022-08-22T03:45:14.053Z,1002.77
2022-08-22T03:46:14.019Z,1002.76
2022-08-22T03:47:14.020Z,1002.76
2022-08-22T03:48:13.991Z,1002.75
2022-08-22T03:49:13.972Z,1002.86
2022-08-22T03:50:13.968Z,1002.81
2022-08-22T03:51:13.946Z,1002.79
2022-08-22T03:52:13.937Z,1002.77
2022-08-22T03:53:18.695Z,1002.84
2022-08-22T03:54:14.909Z,1002.82
2022-08-22T03:55:13.898Z,1002.80
2022-08-22T03:56:13.879Z,1002.82
2022-08-22T03:57:13.877Z,1002.73
2022-08-22T03:58:22.285Z,1002.77
2022-08-22T03:59:14.859Z,1002.77
2022-08-22T04:00:13.846Z,1002.77
2022-08-22T04:01:13.884Z,1002.80
2022-08-22T04:02:41.825Z,1002.87
2022-08-22T04:03:14.809Z,1002.85
2022-08-22T04:04:13.778Z,1002.76
2022-08-22T04:05:13.767Z,1002.82
2022-08-22T04:06:13.746Z,1002.82
2022-08-22T04:07:15.583Z,1002.81
2022-08-22T04:08:14.746Z,1002.82
2022-08-22T04:09:13.716Z,1002.79
2022-08-22T04:10:13.707Z,1002.81
2022-08-22T04:11:13.696Z,1002.82
2022-08-22T04:12:13.676Z,1002.78
2022-08-22T04:13:13.676Z,1002.80
2022-08-22T04:14:13.657Z,1002.80
2022-08-22T04:15:13.645Z,1002.88
2022-08-22T04:16:13.623Z,1002.81
2022-08-22T04:17:13.628Z,1002.84
2022-08-22T04:18:13.597Z,1002.82
2022-08-22T04:19:13.612Z,1002.80
2022-08-22T04:20:13.577Z,1002.83
2022-08-22T04:21:13.564Z,1002.84
2022-08-22T04:22:13.545Z,1002.82
2022-08-22T04:23:13.536Z,1002.87
2022-08-22T04:24:13.533Z,1002.86
2022-08-22T04:25:13.513Z,1002.87
2022-08-22T04:26:13.495Z,1002.91
2022-08-22T04:27:13.485Z,1002.88
2022-08-22T04:28:13.475Z,1002.90
2022-08-22T04:29:13.474Z,1002.93
2022-08-22T04:30:13.444Z,1002.90
2022-08-22T04:31:13.433Z,1002.88
2022-08-22T04:32:14.770Z,1002.95
2022-08-22T04:33:13.415Z,1002.88
2022-08-22T04:34:13.403Z,1002.80
2022-08-22T04:35:13.405Z,1002.86
2022-08-22T04:36:13.367Z,1002.82
2022-08-22T04:37:13.364Z,1002.86
2022-08-22T04:38:13.352Z,1002.82
2022-08-22T04:39:13.332Z,1002.85
2022-08-22T04:40:13.380Z,1002.88
2022-08-22T04:41:13.314Z,1002.87
2022-08-22T04:42:31.740Z,1002.87
2022-08-22T04:43:14.282Z,1002.83
2022-08-22T04:44:13.445Z,1002.85
2022-08-22T04:45:13.301Z,1002.90
2022-08-22T04:46:13.240Z,1002.90
2022-08-22T04:47:13.231Z,1002.88
2022-08-22T04:48:13.223Z,1002.90
2022-08-22T04:49:13.211Z,1002.89
2022-08-22T04:50:13.211Z,1002.86
2022-08-22T04:51:13.182Z,1002.88
2022-08-22T04:52:13.160Z,1002.82
2022-08-22T04:53:13.162Z,1002.86
2022-08-22T04:54:13.138Z,1002.89
2022-08-22T04:55:13.140Z,1002.92
2022-08-22T04:56:13.130Z,1002.92
2022-08-22T04:57:13.100Z,1002.88
2022-08-22T04:58:13.109Z,1002.88
2022-08-22T04:59:13.081Z,1002.86
2022-08-22T05:00:13.060Z,1002.92
2022-08-22T05:01:13.065Z,1002.94
2022-08-22T05:02:13.043Z,1002.90
2022-08-22T05:03:13.031Z,1002.88
2022-08-22T05:04:13.018Z,1002.90
2022-08-22T05:05:13.777Z,1002.89
2022-08-22T05:06:12.998Z,1002.88
2022-08-22T05:07:12.976Z,1002.90
2022-08-22T05:08:12.960Z,1002.91
2022-08-22T05:09:16.081Z,1002.93
2022-08-22T05:10:12.940Z,1002.88
2022-08-22T05:11:12.931Z,1002.93
2022-08-22T05:12:12.928Z,1002.94
2022-08-22T05:13:12.907Z,1002.98
2022-08-22T05:14:12.886Z,1002.83
2022-08-22T05:15:12.869Z,1002.91
2022-08-22T05:16:12.857Z,1002.88
2022-08-22T05:17:12.865Z,1002.90
2022-08-22T05:18:12.835Z,1002.94
2022-08-22T05:19:16.422Z,1002.95
2022-08-22T05:20:12.807Z,1002.98
2022-08-22T05:21:13.970Z,1003.03
2022-08-22T05:22:12.798Z,1003.03
2022-08-22T05:23:16.991Z,1003.01
2022-08-22T05:24:13.756Z,1003.05
2022-08-22T05:25:12.758Z,1003.09
2022-08-22T05:26:12.730Z,1003.00
2022-08-22T05:27:12.736Z,1002.99
2022-08-22T05:28:12.716Z,1002.96
2022-08-22T05:29:12.696Z,1002.98
2022-08-22T05:30:12.677Z,1003.02
2022-08-22T05:31:12.679Z,1003.04
2022-08-22T05:32:12.758Z,1002.97
2022-08-22T05:33:12.646Z,1002.97
2022-08-22T05:34:12.628Z,1003.04
2022-08-22T05:35:12.624Z,1003.02
2022-08-22T05:36:12.607Z,1003.02
2022-08-22T05:37:12.625Z,1003.03
2022-08-22T05:38:12.586Z,1003.08
2022-08-22T05:39:12.564Z,1003.11
2022-08-22T05:40:12.612Z,1003.07
2022-08-22T05:41:12.545Z,1003.06
2022-08-22T05:42:12.524Z,1003.07
2022-08-22T05:43:12.888Z,1002.98
2022-08-22T05:44:12.495Z,1003.07
2022-08-22T05:45:12.496Z,1003.02
2022-08-22T05:46:12.474Z,1003.04
2022-08-22T05:47:12.463Z,1003.02
2022-08-22T05:48:12.463Z,1003.02
2022-08-22T05:49:12.445Z,1003.02
2022-08-22T05:50:12.422Z,1003.07
2022-08-22T05:51:12.404Z,1003.03
2022-08-22T05:52:12.398Z,1003.08
2022-08-22T05:53:12.394Z,1003.05
2022-08-22T05:54:12.368Z,1003.06
2022-08-22T05:55:12.357Z,1003.09
2022-08-22T05:56:12.361Z,1003.05
2022-08-22T05:57:12.332Z,1003.05
2022-08-22T05:58:12.341Z,1003.04
2022-08-22T05:59:12.313Z,1003.11
2022-08-22T06:00:12.284Z,1003.02
2022-08-22T06:01:12.281Z,1003.03
2022-08-22T06:02:12.315Z,1003.04
2022-08-22T06:03:12.274Z,1003.05
2022-08-22T06:04:12.238Z,1003.01
2022-08-22T06:05:12.358Z,1003.08
2022-08-22T06:06:12.214Z,1003.04
2022-08-22T06:07:12.201Z,1003.03
2022-08-22T06:08:12.182Z,1003.14
2022-08-22T06:09:12.192Z,1003.06
2022-08-22T06:10:12.151Z,1003.07
2022-08-22T06:11:12.141Z,1003.09
2022-08-22T06:12:16.851Z,1003.18
2022-08-22T06:13:13.122Z,1003.07
2022-08-22T06:14:13.057Z,1003.08
2022-08-22T06:15:12.624Z,1003.17
2022-08-22T06:16:12.069Z,1003.11
2022-08-22T06:17:12.059Z,1003.10
2022-08-22T06:18:12.040Z,1003.06
2022-08-22T06:19:19.539Z,1003.13
2022-08-22T06:20:13.021Z,1003.13
2022-08-22T06:21:12.018Z,1003.07
2022-08-22T06:22:12.000Z,1003.15
2022-08-22T06:23:13.007Z,1003.12
2022-08-22T06:24:11.959Z,1003.15
2022-08-22T06:25:11.959Z,1003.18
2022-08-22T06:26:20.508Z,1003.13
2022-08-22T06:27:12.920Z,1003.19
2022-08-22T06:28:11.910Z,1003.18
2022-08-22T06:29:11.904Z,1003.18
2022-08-22T06:30:11.888Z,1003.14
2022-08-22T06:31:11.870Z,1003.19
2022-08-22T06:32:11.857Z,1003.23
2022-08-22T06:33:12.627Z,1003.19
2022-08-22T06:34:11.834Z,1003.24
2022-08-22T06:35:11.829Z,1003.23
2022-08-22T06:36:11.800Z,1003.28
2022-08-22T06:37:11.786Z,1003.24
2022-08-22T06:38:11.770Z,1003.19
2022-08-22T06:39:11.759Z,1003.30
2022-08-22T06:40:11.804Z,1003.24
2022-08-22T06:41:11.737Z,1003.27
2022-08-22T06:42:16.331Z,1003.29
2022-08-22T06:43:12.697Z,1003.26
2022-08-22T06:44:11.697Z,1003.27
2022-08-22T06:45:11.667Z,1003.34
2022-08-22T06:46:11.677Z,1003.30
2022-08-22T06:47:11.657Z,1003.25
2022-08-22T06:48:11.640Z,1003.27
2022-08-22T06:49:11.616Z,1003.31
2022-08-22T06:50:13.588Z,1003.17
2022-08-22T06:51:11.604Z,1003.22
2022-08-22T06:52:11.576Z,1003.24
2022-08-22T06:53:11.576Z,1003.15
2022-08-22T06:54:11.556Z,1003.21
2022-08-22T06:55:11.546Z,1003.22
2022-08-22T06:56:11.538Z,1003.27
2022-08-22T06:57:11.513Z,1003.29
2022-08-22T06:58:11.498Z,1003.27
2022-08-22T06:59:11.494Z,1003.28
2022-08-22T07:00:11.488Z,1003.30
2022-08-22T07:01:12.689Z,1003.28
2022-08-22T07:02:11.452Z,1003.31
2022-08-22T07:03:11.437Z,1003.32
2022-08-22T07:04:11.436Z,1003.35
2022-08-22T07:05:11.396Z,1003.28
2022-08-22T07:06:11.419Z,1003.32
2022-08-22T07:07:11.402Z,1003.28
2022-08-22T07:08:11.364Z,1003.35
2022-08-22T07:09:11.345Z,1003.25
2022-08-22T07:10:11.334Z,1003.34
2022-08-22T07:11:11.325Z,1003.35
2022-08-22T07:12:11.323Z,1003.37
2022-08-22T07:13:11.306Z,1003.31
2022-08-22T07:14:11.283Z,1003.31
2022-08-22T07:15:11.277Z,1003.31
2022-08-22T07:16:11.266Z,1003.27
2022-08-22T07:17:11.266Z,1003.30
2022-08-22T07:18:11.232Z,1003.29
2022-08-22T07:19:11.225Z,1003.22
2022-08-22T07:20:11.205Z,1003.19
2022-08-22T07:21:11.204Z,1003.27
2022-08-22T07:22:11.174Z,1003.23
2022-08-22T07:23:11.182Z,1003.21
2022-08-22T07:24:11.152Z,1003.26
2022-08-22T07:25:11.160Z,1003.27
2022-08-22T07:26:11.142Z,1003.24
2022-08-22T07:27:11.112Z,1003.30
2022-08-22T07:28:15.915Z,1003.32
2022-08-22T07:29:12.092Z,1003.23
2022-08-22T07:30:11.075Z,1003.22
2022-08-22T07:31:11.065Z,1003.28
2022-08-22T07:32:11.062Z,1003.24
2022-08-22T07:33:25.240Z,1003.26
2022-08-22T07:34:12.026Z,1003.28
2022-08-22T07:35:11.012Z,1003.22
2022-08-22T07:36:10.997Z,1003.27
2022-08-22T07:37:10.981Z,1003.23
2022-08-22T07:38:10.970Z,1003.33
2022-08-22T07:39:11.220Z,1003.33
2022-08-22T07:40:11.037Z,1003.30
2022-08-22T07:41:10.943Z,1003.30
2022-08-22T07:42:10.915Z,1003.27
2022-08-22T07:43:10.902Z,1003.19
2022-08-22T07:44:10.892Z,1003.21
2022-08-22T07:45:10.893Z,1003.29
2022-08-22T07:46:10.882Z,1003.23
2022-08-22T07:47:10.852Z,1003.30
2022-08-22T07:48:10.852Z,1003.26
2022-08-22T07:49:10.823Z,1003.26
2022-08-22T07:50:10.821Z,1003.29
2022-08-22T07:51:10.808Z,1003.24
2022-08-22T07:52:10.780Z,1003.33
2022-08-22T07:53:10.785Z,1003.31
2022-08-22T07:54:10.781Z,1003.29
2022-08-22T07:55:10.749Z,1003.22
2022-08-22T07:56:10.731Z,1003.31
2022-08-22T07:57:10.723Z,1003.33
2022-08-22T07:58:10.710Z,1003.34
2022-08-22T07:59:12.927Z,1003.38
2022-08-22T08:00:10.679Z,1003.36
2022-08-22T08:01:10.729Z,1003.39
2022-08-22T08:02:10.651Z,1003.42
2022-08-22T08:03:10.640Z,1003.44
2022-08-22T08:04:10.651Z,1003.45
2022-08-22T08:05:10.624Z,1003.33
2022-08-22T08:06:10.611Z,1003.34
2022-08-22T08:07:10.593Z,1003.31
2022-08-22T08:08:13.794Z,1003.33
2022-08-22T08:09:11.570Z,1003.40
2022-08-22T08:10:13.095Z,1003.35
2022-08-22T08:11:10.533Z,1003.40
2022-08-22T08:12:10.528Z,1003.34
2022-08-22T08:13:10.513Z,1003.35
2022-08-22T08:14:13.574Z,1003.39
2022-08-22T08:15:10.488Z,1003.36
2022-08-22T08:16:10.469Z,1003.35
2022-08-22T08:17:10.460Z,1003.34
2022-08-22T08:18:10.449Z,1003.30
2022-08-22T08:19:10.440Z,1003.28
2022-08-22T08:20:10.422Z,1003.26
2022-08-22T08:21:10.409Z,1003.22
2022-08-22T08:22:10.387Z,1003.25
2022-08-22T08:23:10.379Z,1003.19
2022-08-22T08:24:10.370Z,1003.18
2022-08-22T08:25:10.358Z,1003.24
2022-08-22T08:26:10.337Z,1003.20
2022-08-22T08:27:10.338Z,1003.23
2022-08-22T08:28:10.324Z,1003.22
2022-08-22T08:29:10.309Z,1003.22
2022-08-22T08:30:14.770Z,1003.23
2022-08-22T08:31:11.281Z,1003.21
2022-08-22T08:32:10.259Z,1003.21
2022-08-22T08:33:24.289Z,1003.19
2022-08-22T08:34:11.241Z,1003.13
2022-08-22T08:35:10.242Z,1003.17
2022-08-22T08:36:10.209Z,1003.09
2022-08-22T08:37:10.198Z,1003.06
2022-08-22T08:38:10.189Z,1003.13
2022-08-22T08:39:10.190Z,1003.07
2022-08-22T08:40:10.232Z,1003.10
2022-08-22T08:41:10.138Z,1003.11
2022-08-22T08:42:10.127Z,1003.12
2022-08-22T08:43:10.939Z,1003.07
2022-08-22T08:44:10.107Z,1003.03
2022-08-22T08:45:10.088Z,1003.06
2022-08-22T08:46:10.068Z,1002.97
2022-08-22T08:47:10.068Z,1002.98
2022-08-22T08:48:10.046Z,1002.95
2022-08-22T08:49:10.047Z,1002.93
2022-08-22T08:50:10.018Z,1002.91
2022-08-22T08:51:10.017Z,1002.92
2022-08-22T08:52:09.991Z,1002.91
2022-08-22T08:53:09.997Z,1002.86
2022-08-22T08:54:10.019Z,1002.91
2022-08-22T08:55:22.033Z,1002.90
2022-08-22T08:56:10.937Z,1002.94
2022-08-22T08:57:09.940Z,1002.93
2022-08-22T08:58:10.312Z,1002.80
2022-08-22T08:59:10.449Z,1002.81
2022-08-22T09:00:09.895Z,1002.83
2022-08-22T09:01:09.925Z,1002.82
2022-08-22T09:02:13.813Z,1002.83
2022-08-22T09:03:10.859Z,1002.76
2022-08-22T09:04:15.052Z,1002.72
2022-08-22T09:05:10.830Z,1002.74
2022-08-22T09:06:09.814Z,1002.82
2022-08-22T09:07:09.806Z,1002.83
2022-08-22T09:08:11.781Z,1002.72
2022-08-22T09:09:09.788Z,1002.81
2022-08-22T09:10:09.772Z,1002.78
2022-08-22T09:11:12.078Z,1002.70
2022-08-22T09:12:09.736Z,1002.65
2022-08-22T09:13:12.084Z,1002.71
2022-08-22T09:14:09.726Z,1002.70
2022-08-22T09:16:10.687Z,1002.73
2022-08-22T09:17:09.688Z,1002.71
2022-08-22T09:18:09.656Z,1002.74
2022-08-22T09:19:09.667Z,1002.67
2022-08-22T09:20:17.829Z,1002.62
2022-08-22T09:21:10.626Z,1002.65
2022-08-22T09:22:14.359Z,1002.63
2022-08-22T09:23:11.061Z,1002.63
2022-08-22T09:24:09.802Z,1002.64
2022-08-22T09:25:09.566Z,1002.65
2022-08-22T09:26:09.546Z,1002.66
2022-08-22T09:27:09.546Z,1002.68
2022-08-22T09:28:09.529Z,1002.67
2022-08-22T09:29:09.531Z,1002.60
2022-08-22T09:30:11.812Z,1002.66
2022-08-22T09:31:18.708Z,1002.67
2022-08-22T09:32:13.052Z,1002.58
2022-08-22T09:33:09.465Z,1002.59
2022-08-22T09:34:09.455Z,1002.52
2022-08-22T09:35:09.436Z,1002.63
2022-08-22T09:36:12.246Z,1002.57
2022-08-22T09:37:09.417Z,1002.51
2022-08-22T09:38:09.407Z,1002.53
2022-08-22T09:39:09.412Z,1002.53
2022-08-22T09:40:13.342Z,1002.52
2022-08-22T09:40:15.455Z,1002.69
2022-08-22T09:41:10.367Z,1002.44
2022-08-22T09:42:09.345Z,1002.55
2022-08-22T09:43:09.327Z,1002.45
2022-08-22T09:44:09.341Z,1002.44
2022-08-22T09:45:09.326Z,1002.42
2022-08-22T09:46:09.292Z,1002.36
2022-08-22T09:47:09.277Z,1002.43
2022-08-22T09:48:09.266Z,1002.42
2022-08-22T09:49:09.274Z,1002.42
2022-08-22T09:50:09.244Z,1002.31
2022-08-22T09:51:31.295Z,1002.31
2022-08-22T09:52:15.466Z,1002.29
2022-08-22T09:53:10.207Z,1002.27
2022-08-22T09:54:09.212Z,1002.30
2022-08-22T09:55:09.173Z,1002.35
2022-08-22T09:56:11.716Z,1002.33
2022-08-22T09:57:10.146Z,1002.33
2022-08-22T09:58:11.248Z,1002.27
2022-08-22T09:59:09.808Z,1002.32
2022-08-22T10:00:09.125Z,1002.27
2022-08-22T10:01:09.152Z,1002.31
2022-08-22T10:02:14.287Z,1002.31
2022-08-22T10:03:10.066Z,1002.37
2022-08-22T10:04:09.085Z,1002.29
2022-08-22T10:05:09.037Z,1002.25
2022-08-22T10:06:09.247Z,1002.29
2022-08-22T10:07:11.946Z,1002.26
2022-08-22T10:08:11.393Z,1002.33
2022-08-22T10:09:09.296Z,1002.22
2022-08-22T10:10:09.066Z,1002.25
2022-08-22T10:11:08.968Z,1002.20
2022-08-22T10:12:12.785Z,1002.15
2022-08-22T10:13:10.561Z,1002.25
2022-08-22T10:14:08.945Z,1002.23
2022-08-22T10:15:09.745Z,1002.17
2022-08-22T10:16:08.906Z,1002.23
2022-08-22T10:17:08.889Z,1002.23
2022-08-22T10:18:10.512Z,1002.20
2022-08-22T10:19:08.873Z,1002.21
2022-08-22T10:20:08.855Z,1002.20
2022-08-22T10:21:08.838Z,1002.23
2022-08-22T10:22:08.835Z,1002.21
2022-08-22T10:23:08.965Z,1002.26
2022-08-22T10:24:08.818Z,1002.20
2022-08-22T10:25:08.784Z,1002.30
2022-08-22T10:26:08.778Z,1002.23
2022-08-22T10:27:08.756Z,1002.18
2022-08-22T10:28:10.614Z,1002.22
2022-08-22T10:29:08.745Z,1002.29
2022-08-22T10:30:08.732Z,1002.14
2022-08-22T10:31:08.706Z,1002.22
2022-08-22T10:32:14.404Z,1002.16
2022-08-22T10:33:12.162Z,1002.13
2022-08-22T10:34:08.767Z,1002.12
2022-08-22T10:35:08.655Z,1002.13
2022-08-22T10:36:12.092Z,1002.13
2022-08-22T10:37:08.635Z,1002.16
2022-08-22T10:38:10.732Z,1002.15
2022-08-22T10:39:11.616Z,1002.09
2022-08-22T10:40:08.653Z,1002.13
2022-08-22T10:41:09.644Z,1002.12
2022-08-22T10:42:08.577Z,1002.13
2022-08-22T10:43:08.555Z,1002.09
2022-08-22T10:44:08.563Z,1002.12
2022-08-22T10:45:08.526Z,1002.09
2022-08-22T10:46:12.553Z,1002.06
2022-08-22T10:47:09.506Z,1002.10
2022-08-22T10:48:09.842Z,1002.08
2022-08-22T10:49:08.485Z,1002.05
2022-08-22T10:50:08.668Z,1002.03
2022-08-22T10:51:08.803Z,1002.05
2022-08-22T10:52:15.250Z,1002.04
2022-08-22T10:53:09.426Z,1002.04
2022-08-22T10:54:08.436Z,1002.04
2022-08-22T10:55:09.829Z,1002.01
2022-08-22T10:56:08.396Z,1002.08
2022-08-22T10:57:08.462Z,1002.02
2022-08-22T10:58:08.367Z,1002.06
2022-08-22T10:59:08.370Z,1002.03
2022-08-22T11:00:08.341Z,1002.04
2022-08-22T11:01:37.902Z,1002.01
2022-08-22T11:02:09.408Z,1002.03
2022-08-22T11:03:11.009Z,1002.04
2022-08-22T11:04:09.296Z,1001.99
2022-08-22T11:05:08.281Z,1001.99
2022-08-22T11:06:08.266Z,1002.04
2022-08-22T11:07:08.257Z,1002.04
2022-08-22T11:08:08.237Z,1001.95
2022-08-22T11:09:08.248Z,1002.02
2022-08-22T11:10:08.207Z,1002.01
2022-08-22T11:11:08.208Z,1001.99
2022-08-22T11:12:08.202Z,1001.96
2022-08-22T11:13:08.186Z,1001.94
2022-08-22T11:14:08.343Z,1001.97
2022-08-22T11:15:08.157Z,1001.93
2022-08-22T11:16:08.147Z,1001.88
2022-08-22T11:17:27.462Z,1001.88
2022-08-22T11:18:13.204Z,1001.88
2022-08-22T11:19:14.876Z,1001.96
2022-08-22T11:20:09.161Z,1001.95
2022-08-22T11:21:08.077Z,1001.87
2022-08-22T11:22:08.062Z,1001.79
2022-08-22T11:23:08.049Z,1001.85
2022-08-22T11:24:08.048Z,1001.80
2022-08-22T11:25:11.246Z,1001.79
2022-08-22T11:26:08.008Z,1001.77
2022-08-22T11:27:08.007Z,1001.75
2022-08-22T11:28:08.989Z,1001.74
2022-08-22T11:29:13.850Z,1001.73
2022-08-22T11:30:08.957Z,1001.72
2022-08-22T11:31:07.951Z,1001.73
2022-08-22T11:32:08.127Z,1001.73
2022-08-22T11:33:07.938Z,1001.72
2022-08-22T11:34:07.919Z,1001.72
2022-08-22T11:35:08.930Z,1001.70
2022-08-22T11:36:07.887Z,1001.69
2022-08-22T11:37:11.724Z,1001.70
2022-08-22T11:38:08.889Z,1001.75
2022-08-22T11:39:07.949Z,1001.76
2022-08-22T11:40:08.897Z,1001.74
2022-08-22T11:41:07.837Z,1001.73
2022-08-22T11:42:07.807Z,1001.72
2022-08-22T11:43:07.982Z,1001.67
2022-08-22T11:44:08.808Z,1001.74
2022-08-22T11:45:07.768Z,1001.68
2022-08-22T11:46:07.755Z,1001.71
2022-08-22T11:47:07.793Z,1001.69
2022-08-22T11:48:07.736Z,1001.73
2022-08-22T11:49:07.753Z,1001.73
2022-08-22T11:50:11.407Z,1001.69
2022-08-22T11:51:13.565Z,1001.71
2022-08-22T11:52:08.688Z,1001.62
2022-08-22T11:53:08.001Z,1001.67
2022-08-22T11:54:07.669Z,1001.62
2022-08-22T11:55:07.648Z,1001.59
2022-08-22T11:56:07.639Z,1001.63
2022-08-22T11:57:07.621Z,1001.66
2022-08-22T11:58:07.607Z,1001.58
2022-08-22T11:59:07.608Z,1001.56
2022-08-22T12:00:07.578Z,1001.59
2022-08-22T12:01:09.712Z,1001.58